Time;durP1;ratioP1;P1;durP2;ratioP2;P2;SDS_P1;SDS_P2;PMS_P1;PMS_P2;Temp;Humidity;BMP_temperature;BMP_pressure;BME280_temperature;BME280_humidity;BME280_pressure;Samples;Min_cycle;Max_cycle;Signal;HPM_P1;HPM_P2
2021/08/17 00:01:35;;;;;;;11.00;5.47;;;;;;;10.68;91.56;96854.91;2593802;54;20423;-73
2021/08/17 00:04:05;;;;;;;9.40;5.20;;;;;;;10.76;90.18;96863.13;2593945;36;20806;-73
2021/08/17 00:06:35;;;;;;;10.17;5.40;;;;;;;10.58;89.49;96864.28;2595313;54;20435;-73
2021/08/17 00:09:08;;;;;;;11.23;5.50;;;;;;;10.42;89.92;96852.19;2594156;36;21004;-73
2021/08/17 00:11:38;;;;;;;10.27;5.10;;;;;;;10.42;89.26;96862.66;2594620;39;20813;-73
2021/08/17 00:14:08;;;;;;;12.47;5.30;;;;;;;10.35;88.71;96856.16;2594910;36;20442;-73
2021/08/17 00:16:37;;;;;;;12.00;5.30;;;;;;;10.36;88.34;96852.59;2595448;54;20415;-73
2021/08/17 00:19:07;;;;;;;10.73;4.90;;;;;;;10.35;88.61;96861.38;2594900;31;20918;-73
2021/08/17 00:21:38;;;;;;;10.00;4.80;;;;;;;10.43;88.32;96861.72;2595876;54;20462;-73
2021/08/17 00:24:11;;;;;;;11.77;4.17;;;;;;;10.39;88.49;96860.25;2594964;36;20579;-73
2021/08/17 00:26:41;;;;;;;12.73;5.67;;;;;;;10.36;88.28;96860.44;2595318;54;21136;-72
2021/08/17 00:29:11;;;;;;;11.83;4.70;;;;;;;10.36;88.12;96864.84;2594573;36;20415;-72
2021/08/17 00:31:40;;;;;;;7.03;4.13;;;;;;;10.34;87.66;96877.19;2595408;39;20735;-72
2021/08/17 00:34:10;;;;;;;8.13;4.63;;;;;;;10.31;88.28;96874.75;2595585;36;20450;-73
2021/08/17 00:36:40;;;;;;;10.97;3.97;;;;;;;10.39;86.67;96878.59;2595128;39;21120;-72
2021/08/17 00:39:13;;;;;;;8.17;4.27;;;;;;;10.34;87.26;96883.25;2595827;31;20470;-72
2021/08/17 00:41:43;;;;;;;8.67;4.40;;;;;;;10.45;87.71;96880.81;2595543;54;20426;-71
2021/08/17 00:44:19;;;;;;;12.57;4.23;;;;;;;10.29;88.13;96890.53;2594036;36;20994;-72
2021/08/17 00:46:49;;;;;;;9.33;4.53;;;;;;;10.14;87.93;96887.09;2594826;39;20779;-74
2021/08/17 00:49:20;;;;;;;8.67;4.17;;;;;;;10.21;88.39;96895.41;2594509;36;20482;-72
2021/08/17 00:51:51;;;;;;;10.37;5.40;;;;;;;10.15;88.38;96887.94;2595839;54;20433;-72
2021/08/17 00:54:24;;;;;;;8.40;4.40;;;;;;;10.16;88.68;96897.47;2594153;36;20556;-73
2021/08/17 00:56:56;;;;;;;10.40;5.10;;;;;;;10.01;89.69;96902.72;2594915;39;20727;-74
2021/08/17 00:59:25;;;;;;;11.37;5.37;;;;;;;9.85;89.19;96907.22;2595645;36;20808;-74
2021/08/17 01:01:56;;;;;;;11.63;4.80;;;;;;;9.72;89.66;96909.72;2595653;54;20414;-72
2021/08/17 01:04:26;;;;;;;12.43;5.17;;;;;;;9.61;90.36;96889.47;2596150;31;20955;-72
2021/08/17 01:06:56;;;;;;;13.97;4.97;;;;;;;9.68;89.83;96906.47;2596001;39;21320;-73
2021/08/17 01:09:29;;;;;;;9.97;4.70;;;;;;;9.57;90.02;96900.19;2594889;31;20868;-72
2021/08/17 01:11:58;;;;;;;10.93;5.10;;;;;;;9.61;89.77;96906.94;2594709;54;20410;-73
2021/08/17 01:14:28;;;;;;;8.60;4.43;;;;;;;9.53;90.26;96909.16;2595735;36;20430;-73
2021/08/17 01:16:59;;;;;;;10.33;5.37;;;;;;;9.57;90.63;96903.66;2595243;54;21262;-73
2021/08/17 01:19:29;;;;;;;12.70;5.90;;;;;;;9.52;89.94;96904.84;2595481;36;20861;-72
2021/08/17 01:22:00;;;;;;;9.20;5.30;;;;;;;9.50;90.44;96908.38;2595830;54;20426;-72
2021/08/17 01:24:32;;;;;;;10.10;5.03;;;;;;;9.50;90.54;96915.41;2594372;36;20829;-75
2021/08/17 01:27:06;;;;;;;10.47;4.70;;;;;;;9.35;90.68;96898.00;2595765;54;20423;-73
2021/08/17 01:29:36;;;;;;;17.70;6.27;;;;;;;9.44;90.99;96924.44;2594131;36;20746;-73
2021/08/17 01:32:06;;;;;;;12.80;5.17;;;;;;;9.48;90.94;96919.88;2594792;54;20458;-73
2021/08/17 01:34:36;;;;;;;11.33;5.27;;;;;;;9.58;91.17;96921.00;2594354;36;20422;-74
2021/08/17 01:37:06;;;;;;;9.83;4.83;;;;;;;9.49;90.94;96921.56;2594017;54;21271;-72
2021/08/17 01:39:36;;;;;;;15.73;4.90;;;;;;;9.36;90.69;96920.59;2594101;36;20826;-72
2021/08/17 01:42:12;;;;;;;12.23;5.20;;;;;;;9.28;90.78;96924.50;2594420;54;20445;-72
2021/08/17 01:44:41;;;;;;;10.30;5.03;;;;;;;9.25;91.21;96919.47;2594573;31;20418;-73
2021/08/17 01:47:11;;;;;;;8.40;4.40;;;;;;;9.17;92.30;96921.66;2595591;39;20801;-73
2021/08/17 01:49:41;;;;;;;9.83;4.67;;;;;;;9.23;91.28;96926.56;2594283;36;20744;-73
2021/08/17 01:52:11;;;;;;;9.43;4.67;;;;;;;9.25;90.96;96934.28;2596099;39;20819;-72
2021/08/17 01:54:41;;;;;;;13.30;4.60;;;;;;;9.13;90.80;96920.16;2595517;36;20446;-73
2021/08/17 01:57:13;;;;;;;15.50;4.97;;;;;;;9.32;91.60;96935.63;2595900;54;20386;-74
2021/08/17 01:59:43;;;;;;;10.70;5.10;;;;;;;9.17;91.86;96932.13;2596006;36;20531;-70
2021/08/17 02:02:13;;;;;;;12.07;5.20;;;;;;;9.26;91.05;96942.03;2596180;54;20406;-73
2021/08/17 02:04:43;;;;;;;9.53;4.77;;;;;;;9.27;91.03;96937.66;2595998;36;20434;-74
2021/08/17 02:07:13;;;;;;;9.57;5.10;;;;;;;9.17;90.74;96942.56;2595699;54;20439;-73
2021/08/17 02:09:43;;;;;;;10.40;4.60;;;;;;;9.15;90.80;96933.97;2595120;36;21238;-73
2021/08/17 02:12:15;;;;;;;14.33;5.50;;;;;;;9.06;91.11;96935.34;2595140;54;20387;-72
2021/08/17 02:14:45;;;;;;;10.90;4.63;;;;;;;9.05;91.52;96928.44;2595553;36;20680;-73
2021/08/17 02:17:15;;;;;;;10.47;5.20;;;;;;;8.98;91.70;96939.34;2595258;47;21051;-72
2021/08/17 02:19:46;;;;;;;14.30;5.30;;;;;;;9.00;91.91;96947.94;2595599;36;20466;-72
2021/08/17 02:22:16;;;;;;;9.73;4.60;;;;;;;9.02;91.38;96949.53;2595991;54;20957;-73
2021/08/17 02:24:45;;;;;;;21.70;5.40;;;;;;;8.91;91.60;96959.75;2596707;36;20446;-73
2021/08/17 02:27:18;;;;;;;10.80;4.80;;;;;;;9.04;91.11;96962.50;2595673;54;20944;-74
2021/08/17 02:29:48;;;;;;;12.53;4.57;;;;;;;9.07;91.20;96960.53;2595982;36;20426;-72
2021/08/17 02:32:18;;;;;;;11.50;4.80;;;;;;;9.04;91.02;96946.84;2594796;39;20761;-72
2021/08/17 02:34:48;;;;;;;11.40;5.27;;;;;;;9.08;91.12;96958.78;2593943;36;20917;-72
2021/08/17 02:37:17;;;;;;;10.03;4.60;;;;;;;9.05;91.81;96954.56;2594187;54;20415;-71
2021/08/17 02:39:47;;;;;;;11.23;4.77;;;;;;;9.08;90.89;96958.78;2596441;36;21024;-73
2021/08/17 02:42:21;;;;;;;12.87;5.63;;;;;;;9.08;90.87;96956.19;2594299;54;20914;-72
2021/08/17 02:44:50;;;;;;;13.37;5.50;;;;;;;8.97;92.45;96962.00;2594033;36;20764;-73
2021/08/17 02:47:21;;;;;;;9.33;4.60;;;;;;;8.94;91.46;96958.72;2594768;54;20466;-72
2021/08/17 02:49:51;;;;;;;10.90;5.57;;;;;;;9.02;90.83;96967.81;2595406;31;21041;-72
2021/08/17 02:52:21;;;;;;;12.13;4.10;;;;;;;8.83;91.95;96964.56;2595454;54;20391;-73
2021/08/17 02:54:51;;;;;;;14.10;4.30;;;;;;;8.87;91.62;96969.50;2596405;36;20418;-73
2021/08/17 02:57:24;;;;;;;11.73;5.03;;;;;;;8.78;91.98;96972.66;2595953;54;20957;-74
2021/08/17 02:59:54;;;;;;;9.80;4.07;;;;;;;8.73;91.46;96972.06;2595826;31;20455;-73
2021/08/17 03:02:24;;;;;;;12.13;4.10;;;;;;;8.63;91.76;96953.44;2595850;54;20386;-71
2021/08/17 03:04:54;;;;;;;12.23;4.73;;;;;;;8.75;91.42;96970.19;2594457;36;20790;-72
2021/08/17 03:07:24;;;;;;;14.63;4.87;;;;;;;8.60;92.05;96958.00;2595184;54;21005;-73
2021/08/17 03:09:53;;;;;;;8.20;4.40;;;;;;;8.62;91.74;96964.81;2596052;36;20921;-74
2021/08/17 03:12:26;;;;;;;10.47;4.33;;;;;;;8.59;91.85;96969.38;2595548;54;20411;-73
2021/08/17 03:14:56;;;;;;;10.97;4.90;;;;;;;8.60;91.88;96973.66;2593463;36;20999;-73
2021/08/17 03:17:25;;;;;;;6.13;3.50;;;;;;;8.62;91.42;96969.19;2594740;39;20780;-73
2021/08/17 03:19:55;;;;;;;7.50;3.90;;;;;;;8.58;91.53;96968.50;2593508;36;20770;-72
2021/08/17 03:22:25;;;;;;;14.03;4.57;;;;;;;8.62;91.30;96974.41;2593873;39;20756;-74
2021/08/17 03:24:55;;;;;;;12.13;4.83;;;;;;;8.60;91.82;96971.03;2594830;36;21209;-72
2021/08/17 03:27:27;;;;;;;12.17;5.33;;;;;;;8.68;91.32;96969.72;2594168;54;20434;-74
2021/08/17 03:29:57;;;;;;;17.60;6.13;;;;;;;8.65;91.95;96976.88;2594154;36;20520;-72
2021/08/17 03:32:27;;;;;;;12.10;4.83;;;;;;;8.51;92.54;96977.63;2593984;54;20796;-74
2021/08/17 03:34:57;;;;;;;14.67;4.83;;;;;;;8.51;93.06;96977.63;2594235;36;20410;-73
2021/08/17 03:37:27;;;;;;;14.60;5.70;;;;;;;8.61;92.65;96962.31;2594854;39;21158;-73
2021/08/17 03:39:57;;;;;;;10.67;4.70;;;;;;;8.82;91.77;96973.31;2594679;31;20446;-72
2021/08/17 03:42:29;;;;;;;17.60;4.70;;;;;;;8.73;90.37;96969.44;2595302;54;20427;-74
2021/08/17 03:45:00;;;;;;;13.77;5.37;;;;;;;8.67;91.11;96973.25;2595587;36;20429;-73
2021/08/17 03:47:29;;;;;;;15.07;9.30;;;;;;;8.64;91.76;96964.72;2595290;39;20700;-72
2021/08/17 03:49:59;;;;;;;18.03;9.20;;;;;;;8.63;91.68;96958.66;2595564;36;20762;-73
2021/08/17 03:52:29;;;;;;;15.27;8.73;;;;;;;8.32;91.80;96962.06;2594986;54;20910;-73
2021/08/17 03:54:59;;;;;;;15.90;7.80;;;;;;;8.25;92.80;96965.94;2594081;36;21305;-74
2021/08/17 03:57:31;;;;;;;12.93;5.67;;;;;;;8.40;92.61;96975.53;2595105;54;20441;-74
2021/08/17 04:00:01;;;;;;;12.60;5.60;;;;;;;8.49;92.08;96977.69;2593223;36;20974;-75
2021/08/17 04:02:31;;;;;;;12.03;5.13;;;;;;;8.22;92.53;96984.38;2594025;54;21015;-74
2021/08/17 04:05:01;;;;;;;14.70;4.90;;;;;;;8.12;93.17;96987.47;2594151;36;20421;-73
2021/08/17 04:07:31;;;;;;;13.73;4.90;;;;;;;8.18;92.34;96988.91;2594413;54;21428;-73
2021/08/17 04:10:00;;;;;;;8.60;4.60;;;;;;;7.99;93.40;96980.38;2595718;36;20917;-72
2021/08/17 04:12:33;;;;;;;7.80;3.87;;;;;;;8.23;92.66;96988.66;2595482;54;20530;-71
2021/08/17 04:15:03;;;;;;;17.33;4.47;;;;;;;8.48;92.15;96990.81;2596203;36;20749;-73
2021/08/17 04:17:33;;;;;;;10.00;4.53;;;;;;;8.65;91.66;96992.53;2595163;54;20942;-73
2021/08/17 04:20:03;;;;;;;10.07;4.63;;;;;;;8.52;90.44;96985.34;2595613;31;20878;-73
2021/08/17 04:22:33;;;;;;;13.20;4.80;;;;;;;8.44;91.62;96995.38;2595752;54;20439;-74
2021/08/17 04:25:03;;;;;;;10.60;4.37;;;;;;;7.97;92.27;96987.44;2595392;31;21093;-73
2021/08/17 04:27:36;;;;;;;12.07;4.60;;;;;;;7.88;93.28;97002.63;2596059;39;20442;-73
2021/08/17 04:30:08;;;;;;;10.70;4.67;;;;;;;7.71;93.60;96993.06;2595769;36;21471;-73
2021/08/17 04:32:38;;;;;;;12.03;4.60;;;;;;;7.73;94.02;97012.06;2596656;54;20468;-74
2021/08/17 04:35:10;;;;;;;9.87;4.17;;;;;;;7.93;92.72;97007.59;2596814;31;20445;-75
2021/08/17 04:37:43;;;;;;;10.20;4.40;;;;;;;8.16;92.24;97003.81;2594319;54;20992;-74
2021/08/17 04:40:13;;;;;;;10.17;4.60;;;;;;;8.38;91.96;97010.50;2594635;36;20438;-74
2021/08/17 04:42:46;;;;;;;6.00;3.33;;;;;;;8.21;91.76;97008.78;2594820;54;20436;-73
2021/08/17 04:45:16;;;;;;;14.20;5.70;;;;;;;8.26;92.19;97018.03;2596121;36;20961;-74
2021/08/17 04:47:47;;;;;;;17.43;6.60;;;;;;;8.15;91.57;97009.94;2595762;47;20422;-73
2021/08/17 04:50:19;;;;;;;10.00;4.60;;;;;;;7.98;92.98;97025.63;2597123;36;20418;-73
2021/08/17 04:52:49;;;;;;;12.00;5.50;;;;;;;7.97;92.90;97029.16;2595997;54;20418;-73
2021/08/17 04:55:20;;;;;;;10.00;4.63;;;;;;;8.05;93.06;97035.66;2595716;31;20450;-73
2021/08/17 04:57:55;;;;;;;9.60;4.60;;;;;;;8.16;92.55;97026.44;2595618;54;20882;-74
2021/08/17 05:00:26;;;;;;;11.40;4.60;;;;;;;8.30;91.47;97030.00;2594635;36;20933;-73
2021/08/17 05:02:57;;;;;;;16.80;4.70;;;;;;;8.57;90.59;97031.28;2594800;54;20426;-73
2021/08/17 05:05:28;;;;;;;12.23;4.07;;;;;;;8.70;90.79;97030.53;2594731;31;20925;-74
2021/08/17 05:07:58;;;;;;;8.73;5.10;;;;;;;8.77;89.60;97031.03;2594505;54;20945;-72
2021/08/17 05:10:28;;;;;;;9.60;3.97;;;;;;;8.91;89.77;97033.72;2595894;36;20770;-72
2021/08/17 05:13:02;;;;;;;12.30;4.17;;;;;;;8.96;88.97;97033.47;2596183;39;20859;-73
2021/08/17 05:15:32;;;;;;;14.90;5.30;;;;;;;8.95;88.12;97030.94;2596098;36;20474;-73
2021/08/17 05:18:03;;;;;;;6.67;3.90;;;;;;;8.51;89.35;97040.28;2594704;54;21064;-74
2021/08/17 05:20:33;;;;;;;10.60;4.50;;;;;;;8.83;89.02;97043.75;2594985;36;20990;-73
2021/08/17 05:23:03;;;;;;;10.70;4.37;;;;;;;8.93;88.38;97038.84;2594639;39;20871;-73
2021/08/17 05:25:33;;;;;;;9.63;4.90;;;;;;;8.54;90.46;97041.88;2594924;36;20755;-73
2021/08/17 05:28:06;;;;;;;14.00;4.37;;;;;;;8.33;92.71;97039.47;2595159;54;20433;-72
2021/08/17 05:30:36;;;;;;;8.80;4.00;;;;;;;8.76;90.18;97036.31;2596167;36;20415;-72
2021/08/17 05:33:06;;;;;;;8.30;4.50;;;;;;;8.98;89.01;97038.63;2595280;54;20375;-74
2021/08/17 05:35:38;;;;;;;9.37;4.70;;;;;;;9.09;88.26;97044.06;2595041;36;20422;-75
2021/08/17 05:38:08;;;;;;;15.27;4.80;;;;;;;9.20;87.43;97051.31;2596247;54;20930;-77
2021/08/17 05:40:38;;;;;;;11.67;4.80;;;;;;;9.30;87.73;97045.47;2597763;31;20873;-75
2021/08/17 05:43:14;;;;;;;12.27;6.47;;;;;;;9.49;87.20;97047.06;2595837;47;20414;-74
2021/08/17 05:46:04;;;;;;;9.77;4.40;;;;;;;9.62;87.31;97048.00;2561575;54;2003940;-75
2021/08/17 05:48:34;;;;;;;8.00;3.87;;;;;;;9.77;86.61;97042.84;2596488;36;20798;-74
2021/08/17 05:51:04;;;;;;;12.00;5.20;;;;;;;9.58;86.91;97024.75;2595967;47;20430;-75
2021/08/17 05:53:34;;;;;;;13.93;5.27;;;;;;;9.87;85.87;97041.38;2596601;31;20800;-74
2021/08/17 05:56:04;;;;;;;9.20;4.47;;;;;;;10.03;85.53;97042.13;2595545;54;20421;-75
2021/08/17 05:58:36;;;;;;;12.63;5.63;;;;;;;10.39;84.98;97033.03;2594793;36;20505;-75
2021/08/17 06:01:06;;;;;;;10.27;5.00;;;;;;;10.60;82.59;97027.41;2595347;54;20458;-75
2021/08/17 06:03:53;;;;;;;15.40;4.73;;;;;;;10.79;81.70;97034.97;2594888;36;20417;-76
2021/08/17 06:06:23;;;;;;;10.40;4.33;;;;;;;10.66;80.18;97034.88;2595943;39;20786;-76
2021/08/17 06:08:54;;;;;;;11.03;5.73;;;;;;;10.84;80.62;97033.75;2596515;36;20957;-74
2021/08/17 06:11:24;;;;;;;9.87;4.73;;;;;;;10.84;80.54;97031.13;2595791;54;20423;-74
2021/08/17 06:13:57;;;;;;;12.23;5.00;;;;;;;10.89;81.10;97042.16;2595810;36;20547;-74
2021/08/17 06:16:27;;;;;;;11.10;4.90;;;;;;;11.11;81.40;97040.78;2596096;54;20423;-74
2021/08/17 06:18:57;;;;;;;15.30;6.43;;;;;;;11.16;81.34;97038.72;2596377;31;20439;-75
2021/08/17 06:21:27;;;;;;;10.70;4.97;;;;;;;11.23;80.91;97033.91;2596186;54;21069;-75
2021/08/17 06:23:57;;;;;;;58.07;30.10;;;;;;;11.07;82.64;97041.91;2595876;36;20864;-73
2021/08/17 06:26:27;;;;;;;16.37;9.53;;;;;;;11.39;81.36;97028.53;2596117;54;20569;-73
2021/08/17 06:29:00;;;;;;;12.47;6.13;;;;;;;11.41;81.38;97037.16;2596252;36;20438;-74
2021/08/17 06:31:29;;;;;;;15.73;6.27;;;;;;;11.43;81.42;97053.63;2596054;54;20532;-74
2021/08/17 06:34:01;;;;;;;17.00;5.80;;;;;;;11.55;81.79;97047.56;2595663;36;20410;-74
2021/08/17 06:36:32;;;;;;;12.23;5.73;;;;;;;11.64;81.40;97046.09;2595418;54;20411;-74
2021/08/17 06:39:06;;;;;;;16.63;6.93;;;;;;;12.07;80.13;97043.28;2595422;36;20865;-74
2021/08/17 06:41:36;;;;;;;23.87;6.43;;;;;;;11.87;79.54;97048.03;2597102;54;20423;-74
2021/08/17 06:44:08;;;;;;;10.30;5.53;;;;;;;11.98;79.17;97057.03;2595672;36;20746;-74
2021/08/17 06:46:38;;;;;;;11.93;7.00;;;;;;;12.10;77.58;97052.75;2596857;54;20559;-74
2021/08/17 06:49:08;;;;;;;12.00;5.67;;;;;;;12.29;78.14;97055.81;2597378;36;20438;-74
2021/08/17 06:51:38;;;;;;;14.20;6.10;;;;;;;12.39;77.41;97054.22;2601081;54;20435;-74
2021/08/17 06:54:08;;;;;;;14.10;6.63;;;;;;;12.28;75.32;97061.97;2596667;36;20450;-74
2021/08/17 06:56:38;;;;;;;21.43;7.03;;;;;;;12.35;75.86;97060.63;2595574;54;20414;-74
2021/08/17 06:59:11;;;;;;;12.77;5.90;;;;;;;12.27;75.62;97073.44;2595640;36;20824;-74
2021/08/17 07:01:41;;;;;;;12.87;6.57;;;;;;;12.35;75.67;97075.53;2595843;39;20723;-74
2021/08/17 07:04:11;;;;;;;12.80;5.83;;;;;;;12.35;75.08;97058.00;2594313;36;20792;-75
2021/08/17 07:06:41;;;;;;;35.73;19.27;;;;;;;12.92;74.90;97071.59;2596759;54;20406;-73
2021/08/17 07:09:11;;;;;;;21.47;10.10;;;;;;;13.08;72.39;97073.97;2595567;36;20783;-75
2021/08/17 07:11:41;;;;;;;15.90;6.20;;;;;;;13.13;71.49;97069.22;2595113;54;20414;-72
2021/08/17 07:14:13;;;;;;;11.97;6.20;;;;;;;13.14;71.88;97077.00;2593944;36;20413;-73
2021/08/17 07:16:43;;;;;;;14.03;7.00;;;;;;;13.13;71.23;97075.34;2594795;39;21038;-73
2021/08/17 07:19:13;;;;;;;14.33;6.17;;;;;;;13.32;69.05;97081.94;2594739;36;20440;-74
2021/08/17 07:21:43;;;;;;;14.77;7.20;;;;;;;13.61;68.88;97071.91;2594311;54;20509;-74
2021/08/17 07:24:12;;;;;;;15.00;5.73;;;;;;;13.33;68.92;97071.31;2594965;36;20414;-74
2021/08/17 07:26:42;;;;;;;13.70;6.40;;;;;;;14.20;68.08;97079.75;2595256;39;20772;-74
2021/08/17 07:29:15;;;;;;;13.47;6.83;;;;;;;14.54;67.59;97086.88;2594439;36;20873;-75
2021/08/17 07:31:45;;;;;;;15.60;7.30;;;;;;;14.79;64.80;97080.59;2594909;54;20473;-75
2021/08/17 07:34:15;;;;;;;12.00;5.80;;;;;;;14.47;64.86;97083.91;2594917;36;20941;-74
2021/08/17 07:36:45;;;;;;;12.60;5.80;;;;;;;15.46;61.50;97090.19;2594951;54;20451;-74
2021/08/17 07:39:16;;;;;;;16.43;5.40;;;;;;;14.60;63.62;97086.44;2595034;36;20937;-74
2021/08/17 07:41:46;;;;;;;11.40;4.80;;;;;;;15.12;59.10;97085.00;2594885;54;20918;-74
2021/08/17 07:44:18;;;;;;;12.97;6.27;;;;;;;15.56;59.58;97085.88;2594704;36;20434;-74
2021/08/17 07:46:48;;;;;;;11.73;5.63;;;;;;;15.33;59.14;97078.97;2594487;47;20419;-74
2021/08/17 07:49:18;;;;;;;9.47;5.43;;;;;;;15.04;61.55;97079.50;2595028;36;20488;-74
2021/08/17 07:51:48;;;;;;;14.53;6.20;;;;;;;15.08;59.58;97083.56;2594845;54;20419;-74
2021/08/17 07:54:18;;;;;;;9.00;4.60;;;;;;;15.86;58.31;97078.22;2594452;36;20930;-74
2021/08/17 07:56:47;;;;;;;11.93;5.67;;;;;;;16.01;57.49;97077.81;2594363;54;20415;-74
2021/08/17 07:59:20;;;;;;;13.77;5.63;;;;;;;16.00;58.49;97081.41;2593634;36;20899;-72
2021/08/17 08:01:50;;;;;;;8.97;4.80;;;;;;;14.26;59.00;97077.63;2593211;54;20446;-74
2021/08/17 08:04:20;;;;;;;10.07;5.27;;;;;;;14.77;59.39;97072.78;2593732;36;20537;-74
2021/08/17 08:06:50;;;;;;;11.50;5.80;;;;;;;15.06;58.82;97072.31;2594038;54;20382;-74
2021/08/17 08:09:20;;;;;;;10.63;4.77;;;;;;;14.43;60.19;97071.91;2594003;36;20430;-74
2021/08/17 08:11:50;;;;;;;8.30;4.37;;;;;;;14.53;58.47;97077.31;2593949;54;20392;-73
2021/08/17 08:14:28;;;;;;;14.53;6.33;;;;;;;15.02;57.41;97076.13;2595200;31;21389;-76
2021/08/17 08:16:58;;;;;;;12.00;5.50;;;;;;;15.05;57.63;97075.88;2593937;54;20438;-73
2021/08/17 08:19:28;;;;;;;12.97;5.60;;;;;;;15.02;58.36;97069.06;2594300;36;20421;-74
2021/08/17 08:21:58;;;;;;;9.30;4.43;;;;;;;15.19;56.02;97085.34;2593588;54;20981;-74
2021/08/17 08:24:28;;;;;;;18.33;7.63;;;;;;;14.89;55.67;97091.25;2593059;36;20419;-74
2021/08/17 08:26:58;;;;;;;11.97;5.50;;;;;;;15.31;56.57;97086.16;2594106;54;20980;-74
2021/08/17 08:29:30;;;;;;;12.10;5.87;;;;;;;14.94;58.76;97087.28;2594272;36;21008;-74
2021/08/17 08:32:01;;;;;;;11.97;5.43;;;;;;;15.11;58.43;97083.34;2593705;54;20466;-73
2021/08/17 08:34:30;;;;;;;12.10;5.73;;;;;;;15.01;58.46;97079.72;2593799;31;21232;-74
2021/08/17 08:37:03;;;;;;;12.10;5.30;;;;;;;15.25;57.16;97070.81;2593634;39;20779;-76
2021/08/17 08:39:35;;;;;;;10.30;4.90;;;;;;;15.12;55.59;97081.53;2593757;36;20985;-74
2021/08/17 08:42:07;;;;;;;12.07;4.77;;;;;;;14.50;56.04;97088.91;2594262;54;21079;-74
2021/08/17 08:44:41;;;;;;;11.70;5.60;;;;;;;14.49;57.63;97100.44;2593485;36;20799;-75
2021/08/17 08:47:15;;;;;;;8.53;4.20;;;;;;;14.49;56.26;97108.34;2593077;47;20422;-74
2021/08/17 08:49:45;;;;;;;11.73;5.03;;;;;;;14.45;57.42;97112.16;2593194;36;20782;-74
2021/08/17 08:52:15;;;;;;;8.90;5.10;;;;;;;14.50;57.89;97109.16;2593675;54;21005;-74
2021/08/17 08:54:45;;;;;;;11.83;4.80;;;;;;;14.59;58.38;97103.22;2594368;36;20922;-74
2021/08/17 08:57:18;;;;;;;11.30;4.70;;;;;;;15.09;58.21;97087.88;2594478;54;20934;-74
2021/08/17 08:59:51;;;;;;;15.90;6.37;;;;;;;16.13;55.41;97088.28;2593768;36;20422;-74
2021/08/17 09:02:21;;;;;;;11.03;5.27;;;;;;;16.69;53.80;97082.66;2593901;54;20469;-75
2021/08/17 09:04:53;;;;;;;14.87;7.90;;;;;;;15.86;53.94;97092.28;2593890;36;21004;-73
2021/08/17 09:07:38;;;;;;;16.77;6.83;;;;;;;15.95;54.43;97095.94;2595087;54;20528;-73
2021/08/17 09:10:14;;;;;;;14.67;7.57;;;;;;;16.25;54.90;97091.72;2594193;36;20438;-73
2021/08/17 09:12:46;;;;;;;23.23;9.80;;;;;;;15.60;56.42;97100.50;2595024;54;20462;-71
2021/08/17 09:15:21;;;;;;;12.30;6.13;;;;;;;16.14;55.05;97089.97;2594340;36;20759;-73
2021/08/17 09:18:02;;;;;;;8.90;4.90;;;;;;;15.90;53.00;97098.16;2595969;54;20458;-73
2021/08/17 09:20:36;;;;;;;12.57;5.90;;;;;;;16.00;52.94;97099.06;2595045;36;20422;-73
2021/08/17 09:23:26;;;;;;;10.50;4.77;;;;;;;16.91;53.90;97089.59;2595689;54;20536;-72
2021/08/17 09:25:58;;;;;;;8.57;4.57;;;;;;;18.23;50.80;97092.91;2594009;36;21143;-72
2021/08/17 09:28:34;;;;;;;13.20;4.20;;;;;;;18.43;46.59;97079.63;2595782;47;20411;-73
2021/08/17 09:31:27;;;;;;;13.43;4.90;;;;;;;17.71;50.32;97081.72;2559963;54;2004209;-72
2021/08/17 09:33:57;;;;;;;9.40;4.90;;;;;;;16.96;51.72;97090.03;2595784;36;20545;-73
2021/08/17 09:36:27;;;;;;;10.17;5.10;;;;;;;16.48;52.07;97097.69;2596140;54;21317;-73
2021/08/17 09:38:56;;;;;;;10.77;5.13;;;;;;;16.97;52.49;97099.66;2598987;36;21017;-73
2021/08/17 09:41:28;;;;;;;14.13;4.27;;;;;;;16.91;52.14;97078.19;2597238;54;20446;-73
2021/08/17 09:44:03;;;;;;;8.17;3.97;;;;;;;16.59;47.79;97057.97;2595781;36;20457;-74
2021/08/17 09:46:37;;;;;;;10.00;4.83;;;;;;;17.05;47.49;97069.88;2595643;54;20398;-73
2021/08/17 09:49:25;;;;;;;8.27;3.73;;;;;;;17.11;46.92;97077.31;2595246;36;20422;-73
2021/08/17 09:51:56;;;;;;;7.30;3.60;;;;;;;16.64;49.67;97082.22;2595156;54;20930;-73
2021/08/17 09:54:27;;;;;;;6.40;4.70;;;;;;;16.44;50.73;97069.84;2594798;36;20471;-72
2021/08/17 09:56:59;;;;;;;10.07;4.73;;;;;;;15.62;52.83;97063.38;2593960;54;21077;-74
2021/08/17 09:59:30;;;;;;;8.70;3.37;;;;;;;14.81;51.45;97060.22;2594608;36;20423;-73
2021/08/17 10:02:03;;;;;;;10.43;3.97;;;;;;;14.81;52.07;97065.47;2595025;54;20406;-72
2021/08/17 10:04:34;;;;;;;10.00;4.57;;;;;;;14.80;53.80;97069.09;2594874;36;21257;-73
2021/08/17 10:07:06;;;;;;;6.33;3.60;;;;;;;15.03;54.54;97060.22;2595895;54;20962;-72
2021/08/17 10:09:38;;;;;;;6.33;4.00;;;;;;;15.53;55.49;97066.81;2594225;36;20941;-73
2021/08/17 10:12:09;;;;;;;8.57;4.40;;;;;;;15.54;53.91;97066.69;2595104;39;20739;-73
2021/08/17 10:14:39;;;;;;;8.40;3.50;;;;;;;14.86;54.52;97059.84;2595298;36;20423;-73
2021/08/17 10:17:12;;;;;;;15.03;4.00;;;;;;;15.09;53.27;97064.13;2595048;39;20820;-74
2021/08/17 10:19:42;;;;;;;9.37;3.47;;;;;;;15.67;52.97;97065.69;2594684;36;20443;-73
2021/08/17 10:22:13;;;;;;;6.90;3.90;;;;;;;15.72;52.51;97052.91;2594907;39;21114;-75
2021/08/17 10:24:45;;;;;;;8.40;3.83;;;;;;;16.18;52.17;97049.13;2594478;36;20482;-73
2021/08/17 10:27:27;;;;;;;11.60;4.93;;;;;;;15.89;53.29;97048.91;2595148;39;21075;-73
2021/08/17 10:30:00;;;;;;;12.20;7.10;;;;;;;16.04;52.05;97052.09;2595345;36;20914;-72
2021/08/17 10:32:51;;;;;;;13.77;4.00;;;;;;;16.16;51.77;97053.69;2595304;54;20434;-72
2021/08/17 10:36:02;;;;;;;19.87;8.73;;;;;;;16.84;48.73;97040.00;2594357;36;20450;-72
2021/08/17 10:38:44;;;;;;;11.83;6.23;;;;;;;16.48;50.50;97028.97;2594041;36;20423;-73
2021/08/17 10:41:14;;;;;;;12.30;5.10;;;;;;;16.15;51.90;97037.03;2593954;39;20821;-71
2021/08/17 10:44:18;;;;;;;7.80;3.67;;;;;;;16.59;49.13;97037.66;2595887;31;20853;-72
2021/08/17 10:47:11;;;;;;;10.57;5.43;;;;;;;18.71;46.23;97024.81;2594361;39;20861;-73
2021/08/17 10:49:53;;;;;;;8.40;4.07;;;;;;;18.69;44.27;97013.50;2594827;36;20423;-73
2021/08/17 10:52:41;;;;;;;8.40;4.40;;;;;;;17.50;45.16;97016.47;2596143;54;20395;-74
2021/08/17 10:55:37;;;;;;;6.60;4.00;;;;;;;18.79;45.63;97009.00;2595031;36;20430;-73
2021/08/17 10:58:09;;;;;;;8.27;4.17;;;;;;;19.15;42.89;97017.91;2594288;54;20518;-73
2021/08/17 11:00:54;;;;;;;6.53;3.53;;;;;;;18.23;44.00;97013.38;2594651;36;20754;-73
2021/08/17 11:03:56;;;;;;;6.33;3.57;;;;;;;19.36;44.89;97011.47;2595203;54;20430;-74
2021/08/17 11:06:48;;;;;;;7.80;4.07;;;;;;;19.63;43.92;97009.75;2559038;39;2005109;-73
2021/08/17 11:09:19;;;;;;;7.73;3.60;;;;;;;18.86;41.57;96994.19;2594398;36;20819;-74
2021/08/17 11:11:51;;;;;;;5.50;3.07;;;;;;;18.85;41.40;96989.03;2595174;54;20427;-73
2021/08/17 11:14:22;;;;;;;6.33;3.50;;;;;;;19.71;39.64;96988.56;2593674;36;20426;-73
2021/08/17 11:16:55;;;;;;;6.93;3.90;;;;;;;20.21;40.41;96990.66;2594716;54;20930;-74
2021/08/17 11:19:29;;;;;;;4.87;3.40;;;;;;;19.20;39.04;96996.22;2594195;36;20799;-73
2021/08/17 11:22:03;;;;;;;5.17;3.83;;;;;;;19.46;41.75;96987.50;2593998;54;20439;-73
2021/08/17 11:24:35;;;;;;;4.60;2.90;;;;;;;20.02;38.90;96965.09;2599872;36;20423;-73
2021/08/17 11:27:07;;;;;;;6.83;3.67;;;;;;;20.90;39.38;96961.41;2595727;54;21300;-74
2021/08/17 11:29:43;;;;;;;23.13;13.73;;;;;;;20.89;38.72;96965.06;2597092;36;20766;-73
2021/08/17 11:32:15;;;;;;;10.20;6.80;;;;;;;20.37;39.75;96967.81;2598079;54;20442;-71
2021/08/17 11:34:45;;;;;;;6.10;4.03;;;;;;;20.41;38.69;96982.44;2597394;36;21060;-73
2021/08/17 11:37:20;;;;;;;7.93;3.80;;;;;;;19.74;39.05;96990.97;2595457;54;20921;-73
2021/08/17 11:39:52;;;;;;;9.53;4.87;;;;;;;19.97;39.29;96982.50;2595524;36;20425;-74
2021/08/17 11:42:23;;;;;;;6.17;3.60;;;;;;;20.20;39.23;96981.00;2595022;54;20423;-74
2021/08/17 11:44:57;;;;;;;8.10;4.37;;;;;;;20.07;39.46;96978.75;2596262;36;20422;-73
2021/08/17 11:47:29;;;;;;;8.77;3.97;;;;;;;19.80;39.89;96978.88;2597655;54;20445;-73
2021/08/17 11:50:00;;;;;;;9.63;4.03;;;;;;;19.86;39.16;96970.31;2597060;36;20415;-73
2021/08/17 11:52:38;;;;;;;13.07;4.70;;;;;;;20.78;40.54;96976.84;2596535;54;20423;-74
2021/08/17 11:55:10;;;;;;;7.67;4.43;;;;;;;20.92;38.92;96972.72;2595289;36;20516;-73